createdAt,value
2019-03-26T00:01:12.397Z,13.40
2019-03-26T00:04:05.793Z,13.00
2019-03-26T00:06:39.704Z,14.47
2019-03-26T00:09:18.065Z,13.33
2019-03-26T00:11:50.578Z,13.37
2019-03-26T00:14:22.944Z,14.20
2019-03-26T00:16:53.674Z,14.20
2019-03-26T00:19:27.600Z,13.57
2019-03-26T00:22:16.132Z,14.27
2019-03-26T00:24:48.404Z,13.33
2019-03-26T00:27:20.561Z,12.90
2019-03-26T00:29:51.608Z,13.83
2019-03-26T00:32:25.924Z,14.33
2019-03-26T00:34:57.671Z,14.60
2019-03-26T00:37:28.510Z,15.27
2019-03-26T00:39:59.876Z,15.23
2019-03-26T00:42:32.025Z,15.50
2019-03-26T00:45:03.579Z,15.07
2019-03-26T00:47:34.832Z,14.33
2019-03-26T00:50:08.513Z,14.43
2019-03-26T00:52:39.866Z,13.83
2019-03-26T00:55:22.629Z,15.20
2019-03-26T00:57:48.953Z,15.37
2019-03-26T01:00:23.965Z,16.40
2019-03-26T01:02:56.034Z,14.40
2019-03-26T01:05:27.911Z,13.87
2019-03-26T01:07:58.927Z,14.00
2019-03-26T01:10:29.762Z,14.87
2019-03-26T01:13:03.457Z,13.03
2019-03-26T01:15:34.084Z,13.40
2019-03-26T01:18:06.089Z,13.53
2019-03-26T01:20:36.784Z,15.17
2019-03-26T01:23:07.704Z,15.60
2019-03-26T01:25:39.608Z,15.90
2019-03-26T01:28:10.162Z,14.00
2019-03-26T01:30:40.955Z,15.27
2019-03-26T01:33:12.106Z,14.37
2019-03-26T01:35:42.719Z,14.97
2019-03-26T01:38:13.664Z,14.23
2019-03-26T01:40:46.947Z,14.40
2019-03-26T01:43:18.635Z,15.27
2019-03-26T01:45:52.730Z,14.60
2019-03-26T01:48:23.538Z,14.13
2019-03-26T01:50:55.917Z,14.33
2019-03-26T01:53:27.794Z,14.97
2019-03-26T01:55:58.415Z,15.47
2019-03-26T01:58:29.463Z,16.10
2019-03-26T02:01:00.483Z,15.00
2019-03-26T02:03:31.530Z,15.77
2019-03-26T02:06:02.593Z,14.00
2019-03-26T02:08:33.724Z,15.77
2019-03-26T02:11:04.980Z,17.37
2019-03-26T02:13:36.942Z,16.17
2019-03-26T02:16:08.778Z,15.40
2019-03-26T02:18:40.936Z,17.30
2019-03-26T02:21:16.918Z,16.40
2019-03-26T02:23:48.905Z,16.70
2019-03-26T02:26:22.893Z,16.37
2019-03-26T02:28:56.081Z,16.20
2019-03-26T02:31:30.171Z,16.40
2019-03-26T02:34:02.479Z,17.37
2019-03-26T02:36:40.151Z,18.67
2019-03-26T02:39:27.376Z,18.37
2019-03-26T02:42:04.047Z,18.33
2019-03-26T02:44:35.696Z,19.70
2019-03-26T02:47:06.946Z,19.23
2019-03-26T02:49:38.916Z,19.43
2019-03-26T02:52:11.072Z,19.50
2019-03-26T02:54:46.826Z,18.40
2019-03-26T02:57:18.905Z,18.97
2019-03-26T02:59:49.937Z,19.90
2019-03-26T03:02:20.871Z,20.00
2019-03-26T03:04:51.899Z,20.70
2019-03-26T03:07:22.859Z,21.53
2019-03-26T03:09:53.177Z,19.77
2019-03-26T03:12:23.798Z,19.10
2019-03-26T03:14:54.124Z,18.27
2019-03-26T03:17:24.532Z,19.77
2019-03-26T03:19:54.855Z,16.40
2019-03-26T03:22:25.421Z,16.33
2019-03-26T03:24:56.345Z,17.53
2019-03-26T03:27:27.053Z,18.03
2019-03-26T03:29:57.393Z,16.80
2019-03-26T03:32:27.924Z,17.23
2019-03-26T03:34:59.177Z,18.07
2019-03-26T03:37:29.710Z,17.83
2019-03-26T03:40:08.426Z,18.30
2019-03-26T03:42:41.909Z,18.77
2019-03-26T03:45:12.949Z,17.47
2019-03-26T03:47:44.403Z,19.30
2019-03-26T03:50:17.713Z,18.33
2019-03-26T03:52:47.921Z,17.27
2019-03-26T03:55:19.486Z,16.83
2019-03-26T03:57:52.975Z,14.50
2019-03-26T04:00:37.137Z,17.00
2019-03-26T04:03:08.487Z,15.90
2019-03-26T04:05:40.145Z,16.77
2019-03-26T04:08:10.975Z,14.70
2019-03-26T04:10:41.901Z,16.80
2019-03-26T04:13:13.568Z,14.13
2019-03-26T04:15:44.711Z,12.50
2019-03-26T04:18:15.328Z,12.10
2019-03-26T04:20:46.601Z,11.43
2019-03-26T04:23:17.404Z,11.00
2019-03-26T04:25:48.539Z,11.67
2019-03-26T04:28:20.744Z,12.00
2019-03-26T04:30:53.193Z,11.57
2019-03-26T04:33:23.927Z,11.60
2019-03-26T04:35:54.963Z,11.47
2019-03-26T04:38:26.829Z,11.77
2019-03-26T04:40:59.811Z,13.13
2019-03-26T04:43:31.202Z,14.10
2019-03-26T04:46:04.861Z,14.73
2019-03-26T04:48:36.517Z,14.80
2019-03-26T04:51:07.677Z,14.13
2019-03-26T04:53:38.474Z,13.53
2019-03-26T04:56:09.859Z,12.30
2019-03-26T04:58:43.808Z,15.57
2019-03-26T05:01:18.268Z,14.43
2019-03-26T05:03:49.823Z,12.97
2019-03-26T05:06:20.557Z,14.17
2019-03-26T05:08:52.166Z,16.17
2019-03-26T05:11:23.543Z,14.47
2019-03-26T05:13:55.163Z,14.20
2019-03-26T05:16:26.563Z,12.50
2019-03-26T05:18:57.479Z,14.37
2019-03-26T05:21:28.322Z,14.73
2019-03-26T05:24:00.500Z,15.90
2019-03-26T05:26:35.654Z,15.33
2019-03-26T05:29:06.801Z,16.53
2019-03-26T05:31:39.755Z,14.13
2019-03-26T05:34:10.524Z,14.77
2019-03-26T05:36:50.640Z,15.70
2019-03-26T05:39:14.854Z,14.60
2019-03-26T05:41:46.900Z,15.37
2019-03-26T05:44:17.523Z,17.90
2019-03-26T05:46:48.552Z,16.30
2019-03-26T05:49:19.596Z,18.60
2019-03-26T05:51:50.866Z,17.50
2019-03-26T05:54:22.713Z,15.27
2019-03-26T05:56:55.292Z,16.97
2019-03-26T05:59:26.740Z,16.40
2019-03-26T06:01:57.785Z,15.30
2019-03-26T06:04:28.813Z,14.63
2019-03-26T06:07:04.658Z,13.60
2019-03-26T06:09:32.934Z,13.43
2019-03-26T06:12:04.803Z,12.10
2019-03-26T06:14:37.303Z,12.30
2019-03-26T06:17:08.731Z,12.10
2019-03-26T06:19:43.066Z,14.37
2019-03-26T06:22:15.512Z,16.70
2019-03-26T06:24:46.987Z,15.30
2019-03-26T06:27:28.960Z,12.70
2019-03-26T06:30:00.831Z,12.47
2019-03-26T06:32:32.077Z,12.90
2019-03-26T06:35:03.926Z,14.37
2019-03-26T06:37:34.881Z,15.00
2019-03-26T06:40:06.935Z,15.07
2019-03-26T06:42:38.935Z,15.97
2019-03-26T06:45:12.177Z,17.63
2019-03-26T06:47:43.759Z,15.53
2019-03-26T06:50:14.945Z,14.97
2019-03-26T06:52:45.736Z,14.23
2019-03-26T06:55:17.076Z,11.83
2019-03-26T06:57:52.576Z,12.03
2019-03-26T07:00:38.492Z,12.33
2019-03-26T07:03:10.269Z,10.20
2019-03-26T07:05:41.399Z,10.33
2019-03-26T07:08:12.229Z,10.60
2019-03-26T07:10:46.230Z,11.20
2019-03-26T07:13:17.510Z,10.80
2019-03-26T07:15:48.029Z,11.27
2019-03-26T07:18:18.871Z,10.70
2019-03-26T07:20:49.389Z,10.97
2019-03-26T07:23:19.910Z,13.43
2019-03-26T07:25:50.844Z,13.57
2019-03-26T07:28:22.502Z,12.27
2019-03-26T07:30:53.870Z,14.57
2019-03-26T07:33:32.891Z,14.03
2019-03-26T07:36:04.529Z,14.70
2019-03-26T07:38:39.980Z,14.33
2019-03-26T07:41:11.428Z,11.87
2019-03-26T07:43:42.889Z,12.40
2019-03-26T07:46:14.457Z,13.17
2019-03-26T07:48:55.519Z,13.53
2019-03-26T07:51:30.150Z,13.03
2019-03-26T07:54:24.519Z,13.87
2019-03-26T07:57:03.438Z,14.27
2019-03-26T07:59:35.929Z,13.87
2019-03-26T08:02:14.850Z,11.90
2019-03-26T08:04:45.791Z,13.00
2019-03-26T08:07:16.428Z,11.87
2019-03-26T08:09:46.850Z,11.93
2019-03-26T08:12:20.339Z,10.87
2019-03-26T08:14:51.788Z,12.80
2019-03-26T08:17:23.993Z,10.37
2019-03-26T08:19:56.132Z,9.67
2019-03-26T08:22:28.093Z,10.27
2019-03-26T08:24:59.982Z,9.90
2019-03-26T08:27:32.030Z,10.70
2019-03-26T08:30:05.011Z,10.30
2019-03-26T08:32:37.071Z,10.37
2019-03-26T08:35:08.315Z,11.13
2019-03-26T08:37:38.949Z,10.70
2019-03-26T08:40:10.290Z,11.87
2019-03-26T08:42:40.929Z,11.73
2019-03-26T08:45:11.885Z,12.60
2019-03-26T08:47:42.412Z,12.73
2019-03-26T08:50:13.125Z,13.90
2019-03-26T08:52:44.366Z,14.50
2019-03-26T08:55:18.664Z,13.80
2019-03-26T08:57:49.125Z,14.17
2019-03-26T09:00:19.525Z,14.30
2019-03-26T09:02:53.169Z,14.20
2019-03-26T09:05:26.045Z,16.17
2019-03-26T09:07:57.864Z,12.70
2019-03-26T09:10:34.644Z,11.67
2019-03-26T09:13:08.085Z,10.57
2019-03-26T09:15:58.645Z,10.53
2019-03-26T09:19:09.165Z,10.20
2019-03-26T09:32:04.085Z,11.10
2019-03-26T09:34:48.126Z,10.90
2019-03-26T09:37:45.064Z,10.50
2019-03-26T09:40:38.426Z,10.20
2019-03-26T09:43:19.506Z,10.53
2019-03-26T09:45:52.724Z,10.73
2019-03-26T09:48:23.625Z,9.50
2019-03-26T09:50:54.976Z,8.37
2019-03-26T09:53:27.365Z,10.10
2019-03-26T09:55:58.695Z,9.93
2019-03-26T09:58:29.735Z,9.77
2019-03-26T10:00:59.756Z,9.13
2019-03-26T10:03:31.925Z,9.10
2019-03-26T10:06:03.492Z,8.13
2019-03-26T10:08:34.445Z,8.87
2019-03-26T10:11:05.565Z,8.80
2019-03-26T10:13:36.489Z,8.17
2019-03-26T10:16:07.565Z,9.13
2019-03-26T10:18:38.065Z,9.30
2019-03-26T10:21:29.897Z,8.77
2019-03-26T10:24:00.615Z,8.83
2019-03-26T10:26:31.369Z,7.87
2019-03-26T10:29:18.683Z,7.37
2019-03-26T10:31:38.757Z,7.70
2019-03-26T10:34:09.495Z,6.73
2019-03-26T10:36:41.735Z,8.07
2019-03-26T10:39:13.317Z,8.40
2019-03-26T10:41:45.486Z,8.93
2019-03-26T10:44:15.805Z,8.73
2019-03-26T10:46:46.130Z,8.90
2019-03-26T10:49:17.186Z,9.40
2019-03-26T10:51:49.133Z,7.93
2019-03-26T10:54:20.275Z,8.07
2019-03-26T10:56:53.776Z,6.00
2019-03-26T10:59:25.326Z,6.57
2019-03-26T11:01:59.773Z,7.13
2019-03-26T11:04:29.566Z,6.90
2019-03-26T11:07:00.799Z,6.60
2019-03-26T11:09:31.545Z,6.90
2019-03-26T11:12:06.463Z,6.67
2019-03-26T11:14:37.515Z,7.17
2019-03-26T11:17:12.879Z,6.83
2019-03-26T11:20:08.155Z,5.63
2019-03-26T11:25:53.859Z,5.20
2019-03-26T11:28:25.156Z,6.60
2019-03-26T11:30:58.814Z,9.17
2019-03-26T11:33:28.924Z,9.40
2019-03-26T11:36:03.445Z,9.90
2019-03-26T11:38:34.489Z,11.50
2019-03-26T11:41:07.475Z,12.20
2019-03-26T11:43:38.417Z,10.80
2019-03-26T11:46:08.745Z,10.40
2019-03-26T11:48:39.076Z,10.40
2019-03-26T11:51:09.489Z,9.57
2019-03-26T11:53:40.163Z,9.10
2019-03-26T11:56:11.266Z,9.33
2019-03-26T11:58:41.799Z,8.50
2019-03-26T12:01:12.526Z,6.70
2019-03-26T12:03:44.155Z,6.53
2019-03-26T12:06:15.423Z,4.83
2019-03-26T12:08:51.083Z,6.27
2019-03-26T12:11:21.908Z,4.90
2019-03-26T12:13:56.840Z,5.60
2019-03-26T12:16:27.065Z,5.10
2019-03-26T12:19:05.273Z,4.27
2019-03-26T12:21:36.209Z,4.43
2019-03-26T12:26:47.915Z,4.33
2019-03-26T12:29:18.866Z,3.70
2019-03-26T12:31:50.205Z,4.57
2019-03-26T12:34:21.343Z,5.70
2019-03-26T12:36:52.905Z,4.30
2019-03-26T12:39:23.964Z,4.57
2019-03-26T12:41:55.929Z,5.73
2019-03-26T12:44:27.964Z,4.30
2019-03-26T12:46:59.725Z,4.33
2019-03-26T12:49:31.075Z,5.10
2019-03-26T12:52:05.795Z,5.00
2019-03-26T12:54:36.945Z,5.00
2019-03-26T12:57:08.489Z,5.73
2019-03-26T12:59:39.024Z,5.90
2019-03-26T13:02:09.745Z,4.60
2019-03-26T13:04:46.525Z,6.30
2019-03-26T13:07:17.314Z,6.50
2019-03-26T13:09:52.295Z,5.43
2019-03-26T13:12:23.544Z,5.00
2019-03-26T13:14:54.370Z,5.20
2019-03-26T13:17:25.825Z,5.83
2019-03-26T13:19:57.273Z,5.87
2019-03-26T13:22:27.924Z,5.17
2019-03-26T13:28:10.760Z,5.73
2019-03-26T13:30:41.585Z,5.77
2019-03-26T13:33:13.884Z,5.17
2019-03-26T13:35:44.995Z,5.80
2019-03-26T13:38:16.086Z,5.37
2019-03-26T13:40:50.860Z,5.47
2019-03-26T13:43:21.395Z,5.67
2019-03-26T13:45:51.817Z,5.27
2019-03-26T13:48:22.885Z,6.50
2019-03-26T13:50:53.594Z,5.90
2019-03-26T13:53:24.225Z,6.17
2019-03-26T13:55:54.865Z,5.37
2019-03-26T13:58:27.014Z,4.97
2019-03-26T14:01:00.006Z,5.03
2019-03-26T14:03:30.837Z,6.13
2019-03-26T14:06:05.773Z,5.13
2019-03-26T14:08:37.045Z,5.93
2019-03-26T14:11:07.955Z,4.67
2019-03-26T14:13:41.165Z,4.90
2019-03-26T14:16:12.292Z,4.47
2019-03-26T14:18:43.533Z,4.93
2019-03-26T14:21:14.885Z,5.57
2019-03-26T14:23:46.335Z,4.60
2019-03-26T14:26:17.155Z,5.40
2019-03-26T14:28:48.928Z,6.07
2019-03-26T14:31:20.572Z,6.33
2019-03-26T14:33:51.315Z,6.73
2019-03-26T14:36:22.255Z,7.70
2019-03-26T14:38:53.295Z,7.90
2019-03-26T14:41:24.165Z,7.10
2019-03-26T14:43:56.005Z,5.83
2019-03-26T14:46:31.845Z,5.50
2019-03-26T14:49:02.804Z,5.20
2019-03-26T14:51:33.199Z,4.67
2019-03-26T14:54:04.455Z,5.00
2019-03-26T14:56:35.293Z,4.17
2019-03-26T14:59:08.875Z,4.70
2019-03-26T15:01:41.147Z,5.67
2019-03-26T15:04:13.019Z,5.93
2019-03-26T15:06:44.053Z,4.87
2019-03-26T15:09:15.505Z,4.30
2019-03-26T15:11:46.549Z,4.80
2019-03-26T15:14:17.485Z,5.13
2019-03-26T15:16:48.445Z,6.50
2019-03-26T15:19:19.464Z,5.73
2019-03-26T15:21:51.157Z,7.63
2019-03-26T15:24:22.148Z,6.63
2019-03-26T15:26:53.195Z,6.57
2019-03-26T15:29:25.055Z,8.50
2019-03-26T15:31:56.919Z,6.63
2019-03-26T15:34:35.968Z,5.20
2019-03-26T15:37:00.945Z,4.83
2019-03-26T15:39:32.095Z,4.63
2019-03-26T15:42:04.067Z,5.00
2019-03-26T15:44:35.925Z,6.50
2019-03-26T15:47:07.356Z,5.27
2019-03-26T15:49:38.506Z,6.03
2019-03-26T15:52:09.445Z,5.70
2019-03-26T15:54:40.485Z,4.60
2019-03-26T15:57:11.645Z,5.63
2019-03-26T15:59:43.165Z,5.23
2019-03-26T16:02:14.840Z,5.57
2019-03-26T16:04:46.896Z,11.97
2019-03-26T16:07:19.605Z,5.47
2019-03-26T16:09:51.206Z,7.53
2019-03-26T16:12:22.675Z,5.97
2019-03-26T16:14:55.263Z,6.50
2019-03-26T16:17:43.303Z,6.53
2019-03-26T16:20:33.075Z,6.67
2019-03-26T16:23:05.347Z,6.50
2019-03-26T16:25:36.184Z,5.67
2019-03-26T16:28:07.838Z,6.90
2019-03-26T16:30:39.688Z,9.40
2019-03-26T16:33:29.986Z,6.57
2019-03-26T16:36:05.942Z,9.47
2019-03-26T16:38:39.133Z,9.47
2019-03-26T16:41:16.519Z,7.57
2019-03-26T16:43:49.615Z,8.97
2019-03-26T16:46:22.495Z,11.33
2019-03-26T16:49:01.725Z,9.07
2019-03-26T16:51:39.525Z,9.73
2019-03-26T16:54:12.125Z,7.03
2019-03-26T16:56:47.757Z,7.20
2019-03-26T16:59:20.635Z,7.67
2019-03-26T17:01:57.126Z,7.93
2019-03-26T17:39:24.495Z,5.87
2019-03-26T17:51:57.848Z,7.07
2019-03-26T17:54:50.025Z,6.70
2019-03-26T17:58:03.418Z,5.77
2019-03-26T18:00:44.386Z,6.77
2019-03-26T18:03:26.398Z,7.73
2019-03-26T18:05:55.083Z,6.30
2019-03-26T18:08:35.740Z,7.53
2019-03-26T18:11:12.406Z,10.25
2019-03-26T18:13:52.772Z,13.33
2019-03-26T18:16:26.071Z,14.30
2019-03-26T18:19:00.605Z,11.73
2019-03-26T18:21:33.154Z,11.63
2019-03-26T18:24:06.966Z,14.00
2019-03-26T18:26:43.203Z,10.23
2019-03-26T18:29:16.005Z,7.83
2019-03-26T18:31:53.711Z,7.37
2019-03-26T18:34:26.897Z,6.97
2019-03-26T18:37:08.386Z,6.90
2019-03-26T18:40:00.885Z,7.40
2019-03-26T18:42:43.321Z,9.90
2019-03-26T18:45:43.075Z,8.50
2019-03-26T18:48:27.900Z,9.70
2019-03-26T18:51:28.175Z,7.83
2019-03-26T18:54:20.988Z,8.53
2019-03-26T18:57:02.385Z,7.23
2019-03-26T18:59:38.565Z,8.90
2019-03-26T19:02:14.405Z,7.63
2019-03-26T19:04:53.004Z,7.40
2019-03-26T19:07:48.232Z,7.00
2019-03-26T19:10:54.520Z,6.60
2019-03-26T19:13:34.517Z,6.53
2019-03-26T19:16:16.545Z,6.40
2019-03-26T19:18:53.015Z,7.30
2019-03-26T19:21:44.617Z,8.90
2019-03-26T22:09:59.659Z,7.53
2019-03-26T22:12:30.809Z,7.50
2019-03-26T22:15:01.839Z,6.70
2019-03-26T22:17:33.919Z,6.77
2019-03-26T22:20:05.146Z,7.10
2019-03-26T22:22:36.919Z,7.13
2019-03-26T22:25:08.983Z,8.53
2019-03-26T22:27:40.948Z,8.30
2019-03-26T22:30:13.417Z,8.33
2019-03-26T22:32:44.976Z,8.60
2019-03-26T22:35:16.640Z,7.97
2019-03-26T22:37:53.918Z,7.87
2019-03-26T22:40:25.857Z,7.30
2019-03-26T22:42:57.935Z,6.30
2019-03-26T22:45:30.391Z,6.43
2019-03-26T22:48:06.578Z,6.03
2019-03-26T22:50:45.086Z,5.33
2019-03-26T22:53:26.067Z,5.47
2019-03-26T22:55:58.120Z,5.30
2019-03-26T22:58:30.286Z,4.80
2019-03-26T23:01:02.027Z,4.37
2019-03-26T23:03:34.009Z,4.07
2019-03-26T23:06:05.969Z,4.50
2019-03-26T23:11:50.457Z,4.53
2019-03-26T23:14:21.285Z,3.97
2019-03-26T23:16:52.530Z,4.57
2019-03-26T23:19:23.786Z,4.27
2019-03-26T23:21:54.928Z,3.73
2019-03-26T23:24:25.955Z,6.97
2019-03-26T23:26:57.343Z,10.90
2019-03-26T23:29:28.854Z,6.57
2019-03-26T23:32:00.106Z,3.90
2019-03-26T23:34:30.948Z,3.87
2019-03-26T23:37:02.284Z,3.80
2019-03-26T23:39:33.521Z,6.00
2019-03-26T23:42:04.891Z,4.70
2019-03-26T23:44:35.496Z,3.53
2019-03-26T23:47:06.954Z,3.83
2019-03-26T23:49:38.174Z,3.77
2019-03-26T23:52:09.851Z,8.17
2019-03-26T23:54:40.601Z,27.60
2019-03-26T23:57:11.853Z,16.60
2019-03-26T23:59:42.761Z,6.17
